Eurocargo Bari — ICMQ — position and weather

sailwx.info

Track history (hours):
 
Tides and Currents Weather Stations Pressure Air Temp Water Temp Dewpoint Dewpoint Depression Visibility Wind Speed Wind Dir Waves Ship Positions

Eurocargo Bari

Last reported at 2017-Dec-15 19:28 UTC. Time now 2017-Dec-15 19:59 UTC.
Position N 39°13' E 009°06'.

Length 200 m; draft 8 m.

Type: Ship (hazmat cat A). MMSI: 247320400.

Date/timePositionNaut miles runAvg speedWind from/ knotsBaromVisibWave heightAir tempDewpointWater temp
2017-Dec-15 19:28N 39°13' E 009°06'0 0.0
2017-Dec-15 18:58N 39°13' E 009°06'0 0.0
2017-Dec-15 18:28N 39°13' E 009°06'0 0.0
2017-Dec-15 17:58N 39°13' E 009°06'0 0.0
2017-Dec-15 17:28N 39°13' E 009°06'0 0.0
2017-Dec-15 16:58N 39°13' E 009°06'0 0.0
2017-Dec-15 16:28N 39°13' E 009°06'0 0.0
2017-Dec-15 15:58N 39°13' E 009°06'1 2.4
2017-Dec-15 15:30N 39°11' E 009°07'816.5
2017-Dec-15 15:00N 39°06' E 009°15'917.8
2017-Dec-15 14:30N 39°02' E 009°25'8 0.2
2017-Dec-13 18:36N 38°59' E 009°35'320.9
2017-Dec-13 18:27N 38°59' E 009°31'1021.4
2017-Dec-13 18:00N 39°04' E 009°20'1020.2
2017-Dec-13 17:30N 39°09' E 009°09'4 7.6
2017-Dec-13 16:58N 39°13' E 009°06'0 0.0
2017-Dec-13 16:28N 39°13' E 009°06'0 0.0
2017-Dec-13 15:58N 39°13' E 009°06'0 0.0
2017-Dec-13 15:28N 39°13' E 009°06'0 0.0
2017-Dec-13 14:58N 39°13' E 009°06'0 0.0
2017-Dec-13 14:28N 39°13' E 009°06'0 0.0
2017-Dec-13 13:58N 39°13' E 009°06'0 0.0
2017-Dec-13 13:28N 39°13' E 009°06'0 0.0
2017-Dec-13 12:58N 39°13' E 009°06'0 0.8
2017-Dec-13 12:29N 39°12' E 009°07'612.4
2017-Dec-13 11:59N 39°06' E 009°08'1019.0
2017-Dec-13 11:29N 38°57' E 009°07'919.3
2017-Dec-13 11:00N 38°50' E 008°59'1019.1
2017-Dec-13 10:30N 38°45' E 008°48'26618.8
2017-Dec-12 20:18N 39°01' E 003°07'618.8
2017-Dec-12 20:00N 39°02' E 002°59'918.7
2017-Dec-12 19:30N 39°03' E 002°48'919.1
2017-Dec-12 19:00N 39°05' E 002°36'4218.8
2017-Dec-12 16:45N 39°10' E 001°42'11 0.4
2017-Dec-11 13:36N 39°13' E 001°28'215.7
2017-Dec-11 13:30N 39°13' E 001°30'916.4
2017-Dec-11 12:58N 39°12' E 001°41'3416.3
2017-Dec-11 10:52N 39°07' E 002°24'514.7
2017-Dec-11 10:30N 39°06' E 002°31'714.6
2017-Dec-11 10:00N 39°05' E 002°41'1014.4
2017-Dec-11 09:18N 39°03' E 002°53'414.3
2017-Dec-11 08:59N 39°02' E 002°59'26815.3
2017-Dec-10 15:28N 38°47' E 008°43'916.2
2017-Dec-10 14:56N 38°47' E 008°54'1115.9
2017-Dec-10 14:14N 38°54' E 009°05'416.5
2017-Dec-10 14:00N 38°56' E 009°09'815.2
2017-Dec-10 13:30N 39°04' E 009°10'816.1
2017-Dec-10 13:00N 39°12' E 009°06'1 1.7
2017-Dec-10 12:30N 39°13' E 009°06'0 0.0
2017-Dec-10 12:00N 39°13' E 009°06'0 0.0
2017-Dec-10 11:30N 39°13' E 009°06'0 0.0
2017-Dec-10 11:00N 39°13' E 009°06'0 0.0
2017-Dec-10 10:27N 39°13' E 009°06'0 0.0
2017-Dec-10 10:00N 39°13' E 009°06'0 0.2
2017-Dec-10 09:29N 39°12' E 009°07'4 8.0
2017-Dec-10 08:59N 39°09' E 009°09'918.3
2017-Dec-10 08:31N 39°05' E 009°19'918.4
2017-Dec-10 08:00N 38°60' E 009°29'  
2017-Dec-07 18:02N 40°36' E 014°40'918.6
2017-Dec-07 17:33N 40°33' E 014°29'118.8
2017-Dec-07 17:30N 40°33' E 014°28'24418.9
2017-Dec-07 04:33N 38°59' E 009°34'118.5
2017-Dec-07 04:29N 38°59' E 009°33'918.2
2017-Dec-07 04:00N 39°02' E 009°22'1018.9
2017-Dec-07 03:29N 39°07' E 009°12'713.2
2017-Dec-07 03:00N 39°12' E 009°07'0 0.5
2017-Dec-07 02:30N 39°13' E 009°06'0 0.0
2017-Dec-07 02:00N 39°13' E 009°06'0 0.0
2017-Dec-07 01:30N 39°13' E 009°06'0 0.0
2017-Dec-07 01:00N 39°13' E 009°06'0 0.0
2017-Dec-07 00:30N 39°13' E 009°06'0 0.0
2017-Dec-07 00:00N 39°13' E 009°06'0 0.0
2017-Dec-06 23:30N 39°13' E 009°06'0 0.0
2017-Dec-06 23:00N 39°13' E 009°06'1 1.1
2017-Dec-06 22:30N 39°12' E 009°07'815.9
2017-Dec-06 22:00N 39°04' E 009°09'918.9
2017-Dec-06 21:30N 38°55' E 009°08'1019.0
2017-Dec-06 21:00N 38°50' E 008°58'  
Track history (hours):
 
Tides and Currents Weather Stations Pressure Air Temp Water Temp Dewpoint Dewpoint Depression Visibility Wind Speed Wind Dir Waves Ship Positions

Eurocargo Bari

Last reported at 2017-Dec-15 19:28 UTC. Time now 2017-Dec-15 19:59 UTC.
Position N 39°13' E 009°06'.

Length 200 m; draft 8 m.

Type: Ship (hazmat cat A). MMSI: 247320400.

Date/timePositionNaut miles runAvg speedWind from/ knotsBaromVisibWave heightAir tempDewpointWater temp
2017-Dec-15 19:28N 39°13' E 009°06'0 0.0
2017-Dec-15 18:58N 39°13' E 009°06'0 0.0
2017-Dec-15 18:28N 39°13' E 009°06'0 0.0
2017-Dec-15 17:58N 39°13' E 009°06'0 0.0
2017-Dec-15 17:28N 39°13' E 009°06'0 0.0
2017-Dec-15 16:58N 39°13' E 009°06'0 0.0
2017-Dec-15 16:28N 39°13' E 009°06'0 0.0
2017-Dec-15 15:58N 39°13' E 009°06'1 2.4
2017-Dec-15 15:30N 39°11' E 009°07'816.5
2017-Dec-15 15:00N 39°06' E 009°15'917.8
2017-Dec-15 14:30N 39°02' E 009°25'8 0.2
2017-Dec-13 18:36N 38°59' E 009°35'320.9
2017-Dec-13 18:27N 38°59' E 009°31'1021.4
2017-Dec-13 18:00N 39°04' E 009°20'1020.2
2017-Dec-13 17:30N 39°09' E 009°09'4 7.6
2017-Dec-13 16:58N 39°13' E 009°06'0 0.0
2017-Dec-13 16:28N 39°13' E 009°06'0 0.0
2017-Dec-13 15:58N 39°13' E 009°06'0 0.0
2017-Dec-13 15:28N 39°13' E 009°06'0 0.0
2017-Dec-13 14:58N 39°13' E 009°06'0 0.0
2017-Dec-13 14:28N 39°13' E 009°06'0 0.0
2017-Dec-13 13:58N 39°13' E 009°06'0 0.0
2017-Dec-13 13:28N 39°13' E 009°06'0 0.0
2017-Dec-13 12:58N 39°13' E 009°06'0 0.8
2017-Dec-13 12:29N 39°12' E 009°07'612.4
2017-Dec-13 11:59N 39°06' E 009°08'1019.0
2017-Dec-13 11:29N 38°57' E 009°07'919.3
2017-Dec-13 11:00N 38°50' E 008°59'1019.1
2017-Dec-13 10:30N 38°45' E 008°48'26618.8
2017-Dec-12 20:18N 39°01' E 003°07'618.8
2017-Dec-12 20:00N 39°02' E 002°59'918.7
2017-Dec-12 19:30N 39°03' E 002°48'919.1
2017-Dec-12 19:00N 39°05' E 002°36'4218.8
2017-Dec-12 16:45N 39°10' E 001°42'11 0.4
2017-Dec-11 13:36N 39°13' E 001°28'215.7
2017-Dec-11 13:30N 39°13' E 001°30'916.4
2017-Dec-11 12:58N 39°12' E 001°41'3416.3
2017-Dec-11 10:52N 39°07' E 002°24'514.7
2017-Dec-11 10:30N 39°06' E 002°31'714.6
2017-Dec-11 10:00N 39°05' E 002°41'1014.4
2017-Dec-11 09:18N 39°03' E 002°53'414.3
2017-Dec-11 08:59N 39°02' E 002°59'26815.3
2017-Dec-10 15:28N 38°47' E 008°43'916.2
2017-Dec-10 14:56N 38°47' E 008°54'1115.9
2017-Dec-10 14:14N 38°54' E 009°05'416.5
2017-Dec-10 14:00N 38°56' E 009°09'815.2
2017-Dec-10 13:30N 39°04' E 009°10'816.1
2017-Dec-10 13:00N 39°12' E 009°06'1 1.7
2017-Dec-10 12:30N 39°13' E 009°06'0 0.0
2017-Dec-10 12:00N 39°13' E 009°06'0 0.0
2017-Dec-10 11:30N 39°13' E 009°06'0 0.0
2017-Dec-10 11:00N 39°13' E 009°06'0 0.0
2017-Dec-10 10:27N 39°13' E 009°06'0 0.0
2017-Dec-10 10:00N 39°13' E 009°06'0 0.2
2017-Dec-10 09:29N 39°12' E 009°07'4 8.0
2017-Dec-10 08:59N 39°09' E 009°09'918.3
2017-Dec-10 08:31N 39°05' E 009°19'918.4
2017-Dec-10 08:00N 38°60' E 009°29'  
2017-Dec-07 18:02N 40°36' E 014°40'918.6
2017-Dec-07 17:33N 40°33' E 014°29'118.8
2017-Dec-07 17:30N 40°33' E 014°28'24418.9
2017-Dec-07 04:33N 38°59' E 009°34'118.5
2017-Dec-07 04:29N 38°59' E 009°33'918.2
2017-Dec-07 04:00N 39°02' E 009°22'1018.9
2017-Dec-07 03:29N 39°07' E 009°12'713.2
2017-Dec-07 03:00N 39°12' E 009°07'0 0.5
2017-Dec-07 02:30N 39°13' E 009°06'0 0.0
2017-Dec-07 02:00N 39°13' E 009°06'0 0.0
2017-Dec-07 01:30N 39°13' E 009°06'0 0.0
2017-Dec-07 01:00N 39°13' E 009°06'0 0.0
2017-Dec-07 00:30N 39°13' E 009°06'0 0.0
2017-Dec-07 00:00N 39°13' E 009°06'0 0.0
2017-Dec-06 23:30N 39°13' E 009°06'0 0.0
2017-Dec-06 23:00N 39°13' E 009°06'1 1.1
2017-Dec-06 22:30N 39°12' E 009°07'815.9
2017-Dec-06 22:00N 39°04' E 009°09'918.9
2017-Dec-06 21:30N 38°55' E 009°08'1019.0
2017-Dec-06 21:00N 38°50' E 008°58'  

Dump ship's entire track history